Terminal Aerodrome Forecast
Issued by NWS Bismarck, ND

Home | Current Version | Previous Version | Graphics & Text | Print | Product List | Glossary On
Versions: 1 2 3 4 5 6 7 8 9 10 11 12 13 14 15 16 17 18 19 20 21 22 23 24
000
FTUS43 KBIS 241720
TAFBIS
TAF
KBIS 241720Z 2418/2518 09006KT P6SM SCT015
     FM250700 12005KT 4SM BR SCT140
     FM251100 14006KT 2SM BR SCT040
     FM251300 15008KT 6SM BR SCT120=

USA.gov is the U.S. government's official web portal to all federal, state and local government web resources and services.